createdAt,value
2018-12-31T00:03:16.429Z,11.16
2018-12-31T00:06:42.243Z,11.10
2018-12-31T00:10:07.879Z,11.29
2018-12-31T00:13:33.477Z,11.26
2018-12-31T00:16:59.006Z,11.23
2018-12-31T00:20:24.645Z,11.16
2018-12-31T00:23:50.193Z,11.01
2018-12-31T00:27:15.765Z,11.33
2018-12-31T00:30:41.372Z,11.44
2018-12-31T00:34:06.934Z,11.49
2018-12-31T00:37:32.790Z,11.41
2018-12-31T00:40:58.333Z,11.17
2018-12-31T00:44:23.887Z,11.31
2018-12-31T00:47:49.450Z,11.39
2018-12-31T00:51:15.021Z,11.38
2018-12-31T00:54:40.572Z,11.50
2018-12-31T00:58:06.435Z,11.54
2018-12-31T01:01:31.949Z,11.45
2018-12-31T01:04:57.788Z,11.25
2018-12-31T01:08:23.381Z,10.93
2018-12-31T01:11:48.941Z,11.06
2018-12-31T01:15:14.490Z,11.10
2018-12-31T01:18:40.100Z,11.28
2018-12-31T01:22:05.650Z,11.30
2018-12-31T01:25:31.195Z,11.33
2018-12-31T01:28:57.050Z,11.53
2018-12-31T01:32:22.662Z,11.59
2018-12-31T01:35:48.234Z,11.32
2018-12-31T01:39:13.758Z,11.44
2018-12-31T01:42:39.300Z,11.35
2018-12-31T01:46:05.106Z,11.48
2018-12-31T01:49:30.978Z,11.45
2018-12-31T01:52:56.524Z,11.40
2018-12-31T01:56:22.089Z,11.42
2018-12-31T01:59:47.638Z,11.26
2018-12-31T02:03:13.169Z,11.29
2018-12-31T02:06:38.702Z,11.48
2018-12-31T02:10:04.343Z,11.60
2018-12-31T02:13:29.916Z,11.56
2018-12-31T02:16:55.488Z,11.58
2018-12-31T02:20:21.044Z,11.45
2018-12-31T02:23:46.594Z,11.32
2018-12-31T02:27:12.119Z,11.46
2018-12-31T02:30:37.655Z,10.90
2018-12-31T02:34:03.250Z,11.47
2018-12-31T02:37:28.796Z,11.50
2018-12-31T02:40:54.610Z,11.45
2018-12-31T02:44:20.151Z,11.43
2018-12-31T02:47:45.683Z,11.52
2018-12-31T02:51:11.247Z,11.55
2018-12-31T02:54:36.797Z,11.53
2018-12-31T02:58:02.458Z,11.62
2018-12-31T03:01:28.020Z,11.64
2018-12-31T03:04:53.617Z,11.07
2018-12-31T03:08:19.132Z,11.60
2018-12-31T03:11:44.670Z,11.53
2018-12-31T03:15:10.256Z,11.60
2018-12-31T03:18:35.931Z,11.35
2018-12-31T03:22:01.494Z,11.35
2018-12-31T03:25:27.035Z,11.68
2018-12-31T03:28:52.602Z,11.59
2018-12-31T03:32:18.167Z,11.72
2018-12-31T03:35:43.963Z,11.65
2018-12-31T03:39:09.976Z,11.59
2018-12-31T03:42:35.498Z,11.52
2018-12-31T03:46:01.050Z,11.49
2018-12-31T03:49:26.615Z,11.37
2018-12-31T03:52:52.159Z,11.68
2018-12-31T03:56:17.736Z,11.29
2018-12-31T03:59:43.297Z,11.70
2018-12-31T04:03:08.865Z,11.76
2018-12-31T04:06:34.431Z,11.64
2018-12-31T04:10:00.009Z,11.59
2018-12-31T04:13:25.575Z,11.71
2018-12-31T04:16:51.390Z,11.63
2018-12-31T04:20:16.925Z,11.88
2018-12-31T04:23:42.498Z,11.87
2018-12-31T04:27:08.035Z,11.37
2018-12-31T04:30:33.641Z,11.68
2018-12-31T04:34:09.241Z,11.71
2018-12-31T04:37:35.315Z,11.72
2018-12-31T04:41:00.898Z,11.78
2018-12-31T04:44:26.993Z,11.62
2018-12-31T04:47:52.548Z,11.68
2018-12-31T04:51:18.110Z,11.85
2018-12-31T04:54:43.644Z,11.66
2018-12-31T04:58:09.226Z,11.53
2018-12-31T05:01:34.727Z,11.69
2018-12-31T05:05:00.283Z,11.64
2018-12-31T05:08:25.852Z,11.59
2018-12-31T05:11:51.422Z,11.51
2018-12-31T05:15:17.267Z,11.78
2018-12-31T05:18:42.857Z,11.70
2018-12-31T05:22:08.691Z,11.85
2018-12-31T05:25:34.268Z,11.87
2018-12-31T05:28:59.798Z,11.92
2018-12-31T05:32:25.376Z,11.47
2018-12-31T05:35:50.913Z,11.49
2018-12-31T05:39:16.525Z,11.81
2018-12-31T05:42:42.371Z,11.98
2018-12-31T05:46:07.931Z,11.96
2018-12-31T05:49:33.502Z,11.96
2018-12-31T05:52:59.354Z,11.89
2018-12-31T05:56:24.895Z,11.93
2018-12-31T05:59:50.453Z,11.77
2018-12-31T06:03:16.057Z,11.93
2018-12-31T06:06:41.589Z,11.93
2018-12-31T06:10:07.214Z,11.83
2018-12-31T06:13:32.771Z,11.90
2018-12-31T06:16:58.397Z,11.91
2018-12-31T06:20:24.314Z,11.94
2018-12-31T06:23:49.811Z,11.91
2018-12-31T06:27:15.691Z,11.96
2018-12-31T06:30:41.244Z,11.96
2018-12-31T06:34:06.793Z,11.99
2018-12-31T06:37:32.325Z,11.95
2018-12-31T06:40:58.145Z,11.91
2018-12-31T06:44:23.976Z,11.69
2018-12-31T06:47:49.780Z,11.68
2018-12-31T06:51:15.283Z,11.75
2018-12-31T06:54:40.870Z,11.98
2018-12-31T06:58:06.446Z,11.93
2018-12-31T07:01:32.320Z,11.84
2018-12-31T07:04:57.867Z,11.57
2018-12-31T07:08:23.417Z,11.59
2018-12-31T07:11:48.979Z,11.50
2018-12-31T07:15:14.528Z,11.63
2018-12-31T07:18:40.104Z,11.71
2018-12-31T07:22:05.694Z,11.86
2018-12-31T07:25:31.246Z,11.75
2018-12-31T07:28:56.820Z,11.66
2018-12-31T07:32:22.342Z,11.73
2018-12-31T07:35:47.912Z,11.87
2018-12-31T07:39:13.776Z,11.90
2018-12-31T07:42:39.602Z,11.82
2018-12-31T07:46:05.183Z,11.77
2018-12-31T07:49:30.753Z,11.89
2018-12-31T07:52:56.436Z,11.85
2018-12-31T07:56:22.010Z,11.92
2018-12-31T07:59:47.938Z,11.86
2018-12-31T08:03:13.613Z,11.73
2018-12-31T08:06:39.194Z,11.95
2018-12-31T08:10:04.876Z,11.96
2018-12-31T08:13:30.456Z,11.93
2018-12-31T08:16:56.433Z,11.87
2018-12-31T08:20:22.322Z,11.86
2018-12-31T08:23:47.891Z,11.84
2018-12-31T08:27:13.440Z,11.73
2018-12-31T08:30:39.304Z,11.98
2018-12-31T08:34:04.841Z,11.87
2018-12-31T08:37:30.389Z,11.93
2018-12-31T08:40:55.939Z,11.91
2018-12-31T08:44:21.803Z,11.89
2018-12-31T08:47:47.348Z,12.13
2018-12-31T08:51:12.907Z,12.00
2018-12-31T08:54:38.479Z,12.04
2018-12-31T08:58:04.067Z,11.73
2018-12-31T09:01:29.990Z,11.84
2018-12-31T09:04:55.543Z,11.98
2018-12-31T09:08:21.079Z,12.04
2018-12-31T09:11:46.623Z,12.08
2018-12-31T09:15:12.249Z,11.96
2018-12-31T09:18:37.869Z,11.95
2018-12-31T09:22:03.548Z,12.06
2018-12-31T09:25:29.203Z,12.03
2018-12-31T09:28:54.979Z,12.10
2018-12-31T09:32:21.015Z,12.17
2018-12-31T09:35:46.576Z,11.57
2018-12-31T09:39:12.126Z,11.83
2018-12-31T09:42:37.687Z,12.10
2018-12-31T09:46:03.226Z,12.21
2018-12-31T09:49:28.815Z,12.31
2018-12-31T09:52:54.407Z,12.18
2018-12-31T09:56:19.999Z,12.23
2018-12-31T09:59:45.531Z,12.23
2018-12-31T10:03:11.062Z,12.20
2018-12-31T10:06:36.620Z,11.81
2018-12-31T10:10:02.202Z,12.17
2018-12-31T10:13:28.344Z,12.32
2018-12-31T10:16:54.174Z,12.33
2018-12-31T10:20:19.727Z,12.41
2018-12-31T10:23:45.300Z,12.48
2018-12-31T10:27:10.862Z,12.34
2018-12-31T10:30:36.718Z,12.42
2018-12-31T10:34:02.507Z,12.77
2018-12-31T10:37:28.098Z,12.77
2018-12-31T10:40:53.629Z,12.65
2018-12-31T10:44:19.201Z,12.58
2018-12-31T10:47:44.739Z,12.61
2018-12-31T10:51:10.599Z,12.22
2018-12-31T10:54:36.141Z,12.39
2018-12-31T10:58:01.678Z,12.25
2018-12-31T11:01:27.236Z,12.34
2018-12-31T11:04:52.807Z,12.32
2018-12-31T11:08:18.330Z,12.47
2018-12-31T11:11:44.187Z,12.50
2018-12-31T11:15:09.868Z,12.36
2018-12-31T11:18:35.389Z,12.61
2018-12-31T11:22:01.039Z,12.68
2018-12-31T11:25:26.608Z,12.39
2018-12-31T11:28:52.200Z,12.49
2018-12-31T11:32:17.756Z,12.79
2018-12-31T11:35:43.613Z,12.64
2018-12-31T11:39:10.156Z,13.21
2018-12-31T11:42:35.752Z,13.21
2018-12-31T11:46:01.917Z,13.11
2018-12-31T11:49:27.460Z,12.97
2018-12-31T11:52:53.103Z,12.92
2018-12-31T11:56:18.927Z,12.71
2018-12-31T11:59:44.539Z,12.97
2018-12-31T12:03:10.376Z,12.94
2018-12-31T12:06:35.940Z,12.70
2018-12-31T12:10:01.802Z,12.79
2018-12-31T12:13:27.377Z,12.72
2018-12-31T12:16:53.268Z,12.59
2018-12-31T12:20:18.888Z,12.61
2018-12-31T12:23:45.093Z,12.64
2018-12-31T12:27:10.678Z,12.73
2018-12-31T12:30:36.242Z,12.71
2018-12-31T12:34:01.834Z,12.77
2018-12-31T12:37:27.530Z,12.72
2018-12-31T12:40:53.062Z,12.40
2018-12-31T12:44:18.662Z,12.66
2018-12-31T12:47:44.220Z,12.87
2018-12-31T12:51:10.126Z,12.64
2018-12-31T12:54:36.067Z,12.75
2018-12-31T12:58:01.699Z,12.39
2018-12-31T13:01:27.524Z,12.69
2018-12-31T13:04:53.127Z,12.59
2018-12-31T13:08:18.745Z,12.71
2018-12-31T13:11:44.277Z,12.72
2018-12-31T13:15:09.978Z,12.73
2018-12-31T13:18:35.610Z,12.53
2018-12-31T13:22:01.495Z,12.73
2018-12-31T13:25:27.245Z,12.99
2018-12-31T13:28:53.939Z,12.81
2018-12-31T13:32:19.549Z,12.74
2018-12-31T13:35:45.092Z,12.97
2018-12-31T13:39:10.687Z,12.65
2018-12-31T13:42:36.610Z,12.82
2018-12-31T13:46:03.476Z,12.90
2018-12-31T13:49:29.298Z,12.88
2018-12-31T13:52:54.824Z,12.93
2018-12-31T13:56:20.398Z,12.96
2018-12-31T13:59:45.955Z,13.30
2018-12-31T14:03:17.172Z,14.14
2018-12-31T14:06:38.855Z,13.64
2018-12-31T14:10:04.853Z,13.37
2018-12-31T14:13:30.380Z,13.14
2018-12-31T14:16:56.003Z,12.94
2018-12-31T14:20:21.792Z,12.97
2018-12-31T14:23:47.650Z,12.91
2018-12-31T14:27:13.210Z,12.77
2018-12-31T14:30:38.801Z,12.67
2018-12-31T14:34:04.347Z,12.67
2018-12-31T14:37:29.926Z,12.59
2018-12-31T14:40:55.493Z,12.65
2018-12-31T14:44:21.039Z,12.72
2018-12-31T14:47:46.619Z,12.49
2018-12-31T14:51:12.560Z,12.51
2018-12-31T14:54:38.318Z,12.59
2018-12-31T14:58:04.865Z,12.55
2018-12-31T15:01:30.385Z,12.69
2018-12-31T15:04:56.258Z,14.10
2018-12-31T15:08:22.100Z,14.40
2018-12-31T15:11:48.058Z,14.71
2018-12-31T15:15:13.984Z,14.30
2018-12-31T15:18:39.688Z,14.13
2018-12-31T15:22:05.295Z,13.41
2018-12-31T15:25:30.877Z,12.97
2018-12-31T15:28:56.498Z,12.84
2018-12-31T15:32:22.154Z,12.65
2018-12-31T15:35:47.843Z,12.65
2018-12-31T15:39:13.762Z,12.59
2018-12-31T15:42:39.347Z,12.60
2018-12-31T15:46:04.887Z,12.53
2018-12-31T15:49:30.446Z,12.63
2018-12-31T15:52:56.034Z,12.59
2018-12-31T15:56:21.579Z,12.55
2018-12-31T15:59:47.395Z,12.63
2018-12-31T16:03:13.001Z,12.60
2018-12-31T16:06:38.615Z,12.50
2018-12-31T16:10:04.332Z,12.48
2018-12-31T16:13:29.882Z,12.41
2018-12-31T16:16:55.435Z,12.53
2018-12-31T16:20:20.961Z,12.51
2018-12-31T16:23:46.513Z,12.46
2018-12-31T16:27:12.457Z,12.34
2018-12-31T16:30:38.301Z,12.29
2018-12-31T16:34:04.117Z,12.36
2018-12-31T16:37:29.689Z,12.48
2018-12-31T16:40:55.223Z,12.35
2018-12-31T16:44:20.836Z,12.40
2018-12-31T16:47:46.396Z,12.28
2018-12-31T16:51:12.826Z,12.31
2018-12-31T16:54:38.712Z,12.30
2018-12-31T16:58:04.296Z,12.24
2018-12-31T17:01:29.919Z,12.10
2018-12-31T17:04:55.835Z,12.02
2018-12-31T17:08:21.413Z,12.10
2018-12-31T17:11:46.972Z,12.09
2018-12-31T17:15:12.541Z,12.10
2018-12-31T17:18:38.335Z,11.95
2018-12-31T17:22:03.920Z,11.90
2018-12-31T17:25:29.461Z,12.08
2018-12-31T17:28:55.055Z,11.84
2018-12-31T17:32:20.575Z,11.96
2018-12-31T17:35:46.279Z,12.09
2018-12-31T17:39:12.266Z,11.94
2018-12-31T17:42:37.882Z,11.98
2018-12-31T17:46:03.443Z,11.92
2018-12-31T17:49:29.428Z,11.95
2018-12-31T17:52:55.262Z,12.00
2018-12-31T17:56:20.790Z,11.93
2018-12-31T17:59:46.347Z,11.86
2018-12-31T18:03:11.852Z,11.77
2018-12-31T18:06:37.431Z,11.91
2018-12-31T18:10:02.967Z,11.93
2018-12-31T18:13:28.517Z,11.83
2018-12-31T18:16:54.091Z,11.82
2018-12-31T18:20:20.016Z,11.79
2018-12-31T18:23:46.010Z,11.99
2018-12-31T18:27:11.548Z,11.91
2018-12-31T18:30:37.430Z,11.84
2018-12-31T18:34:02.983Z,11.85
2018-12-31T18:37:28.803Z,11.87
2018-12-31T18:40:54.424Z,11.77
2018-12-31T18:44:20.193Z,11.97
2018-12-31T18:47:45.703Z,11.92
2018-12-31T18:51:11.251Z,11.82
2018-12-31T18:54:36.912Z,11.89
2018-12-31T18:58:03.281Z,11.75
2018-12-31T19:01:28.801Z,11.80
2018-12-31T19:04:54.627Z,12.10
2018-12-31T19:08:20.180Z,12.07
2018-12-31T19:11:45.699Z,11.91
2018-12-31T19:15:11.357Z,11.87
2018-12-31T19:18:36.923Z,12.03
2018-12-31T19:22:02.519Z,11.92
2018-12-31T19:25:28.412Z,12.01
2018-12-31T19:28:53.937Z,11.85
2018-12-31T19:32:19.494Z,11.92
2018-12-31T19:35:45.041Z,12.20
2018-12-31T19:39:10.613Z,12.01
2018-12-31T19:42:36.184Z,12.10
2018-12-31T19:46:02.373Z,11.93
2018-12-31T19:49:27.955Z,11.84
2018-12-31T19:52:53.609Z,12.16
2018-12-31T19:56:19.188Z,12.68
2018-12-31T19:59:44.759Z,12.34
2018-12-31T20:03:10.321Z,11.56
2018-12-31T20:06:35.887Z,11.80
2018-12-31T20:10:01.771Z,11.74
2018-12-31T20:13:27.927Z,11.72
2018-12-31T20:16:53.936Z,11.86
2018-12-31T20:20:19.453Z,11.97
2018-12-31T20:23:45.022Z,11.58
2018-12-31T20:27:10.637Z,11.65
2018-12-31T20:30:36.266Z,11.58
2018-12-31T20:34:01.798Z,11.90
2018-12-31T20:37:27.515Z,11.60
2018-12-31T20:40:53.047Z,11.54
2018-12-31T20:44:18.971Z,11.57
2018-12-31T20:47:44.774Z,11.85
2018-12-31T20:51:10.320Z,11.15
2018-12-31T20:54:35.923Z,11.51
2018-12-31T20:58:01.868Z,11.43
2018-12-31T21:01:27.681Z,11.50
2018-12-31T21:04:53.339Z,11.29
2018-12-31T21:08:18.919Z,11.47
2018-12-31T21:11:44.467Z,11.06
2018-12-31T21:15:10.034Z,10.98
2018-12-31T21:18:37.336Z,11.30
2018-12-31T21:22:03.023Z,11.31
2018-12-31T21:25:28.554Z,11.07
2018-12-31T21:28:54.138Z,11.03
2018-12-31T21:32:19.691Z,11.08
2018-12-31T21:35:45.822Z,11.11
2018-12-31T21:39:11.643Z,11.00
2018-12-31T21:42:37.191Z,11.42
2018-12-31T21:46:02.709Z,11.11
2018-12-31T21:49:28.316Z,11.20
2018-12-31T21:52:53.834Z,11.23
2018-12-31T21:56:19.729Z,11.16
2018-12-31T21:59:45.314Z,10.96
2018-12-31T22:03:10.888Z,11.17
2018-12-31T22:06:36.412Z,11.50
2018-12-31T22:10:01.978Z,11.39
2018-12-31T22:13:27.554Z,11.43
2018-12-31T22:16:53.157Z,11.12
2018-12-31T22:20:18.676Z,11.07
2018-12-31T22:23:44.239Z,11.30
2018-12-31T22:27:09.807Z,11.52
2018-12-31T22:30:35.381Z,10.96
2018-12-31T22:34:00.921Z,11.11
2018-12-31T22:37:26.473Z,11.14
2018-12-31T22:40:52.271Z,11.27
2018-12-31T22:44:18.152Z,11.30
2018-12-31T22:47:44.386Z,11.23
2018-12-31T22:51:10.230Z,11.18
2018-12-31T22:54:36.680Z,10.88
2018-12-31T22:58:02.804Z,10.77
2018-12-31T23:01:28.395Z,11.13
2018-12-31T23:04:53.925Z,11.25
2018-12-31T23:08:19.525Z,11.35
2018-12-31T23:11:45.121Z,11.19
2018-12-31T23:15:19.160Z,11.07
2018-12-31T23:18:44.706Z,11.36
2018-12-31T23:22:10.306Z,11.19
2018-12-31T23:25:35.862Z,11.17
2018-12-31T23:29:01.434Z,11.30
2018-12-31T23:32:27.002Z,10.83
2018-12-31T23:35:52.555Z,10.90
2018-12-31T23:39:18.131Z,10.63
2018-12-31T23:42:43.721Z,10.70
2018-12-31T23:46:09.263Z,10.50
2018-12-31T23:49:34.776Z,10.65
2018-12-31T23:53:00.317Z,10.95
2018-12-31T23:56:25.923Z,10.65
2018-12-31T23:59:51.737Z,10.43
